Time;durP1;ratioP1;P1;durP2;ratioP2;P2;SDS_P1;SDS_P2;PMS_P1;PMS_P2;Temp;Humidity;BMP_temperature;BMP_pressure;BME280_temperature;BME280_humidity;BME280_pressure;Samples;Min_cycle;Max_cycle;Signal;HPM_P1;HPM_P2
2022/07/12 00:00:20;;;;;;;;;;;26.10;34.50;;;;;;672771;29;770;-88
2022/07/12 00:00:41;;;;;;;;;;;26.10;34.50;;;;;;672554;29;1891;-88
2022/07/12 00:01:01;;;;;;;;;;;26.00;34.40;;;;;;669875;29;1148;-88
2022/07/12 00:01:22;;;;;;;;;;;26.10;34.50;;;;;;665337;29;1443;-87
2022/07/12 00:01:42;;;;;;;;;;;26.10;34.60;;;;;;670373;29;1097;-87
2022/07/12 00:02:03;;;;;;;;;;;26.10;34.60;;;;;;672721;29;1334;-88
2022/07/12 00:02:24;;;;;;;;;;;26.10;34.50;;;;;;672652;29;1309;-89
2022/07/12 00:02:44;;;;;;;;;;;26.10;34.50;;;;;;672835;29;812;-88
2022/07/12 00:03:05;;;;;;;;;;;26.00;34.40;;;;;;673001;29;1215;-88
2022/07/12 00:03:25;;;;;;;;;;;26.00;34.40;;;;;;672640;29;1325;-88
2022/07/12 00:03:46;;;;;;;;;;;26.00;34.40;;;;;;672706;29;1271;-88
2022/07/12 00:04:06;;;;;;;;;;;26.00;34.50;;;;;;672961;29;1369;-88
2022/07/12 00:04:27;;;;;;;;;;;26.00;34.50;;;;;;672648;29;1219;-88
2022/07/12 00:04:49;;;;;;;;;;;26.00;34.30;;;;;;669639;29;1108;-89
2022/07/12 00:05:09;;;;;;;;;;;26.00;34.30;;;;;;670024;29;1300;-88
2022/07/12 00:05:30;;;;;;;;;;;26.10;34.50;;;;;;670467;29;1203;-88
2022/07/12 00:05:51;;;;;;;;;;;26.00;34.30;;;;;;670131;29;1341;-88
2022/07/12 00:06:11;;;;;;;;;;;26.10;34.50;;;;;;668007;29;1223;-88
2022/07/12 00:06:32;;;;;;;;;;;26.10;34.50;;;;;;670132;29;1145;-88
2022/07/12 00:06:53;;;;;;;;;;;26.10;34.60;;;;;;667569;29;1211;-88
2022/07/12 00:07:14;;;;;;;;;;;26.10;34.30;;;;;;667794;29;1480;-88
2022/07/12 00:07:34;;;;;;;;;;;25.00;33.60;;;;;;670447;29;1223;-88
2022/07/12 00:07:55;;;;;;;;;;;26.10;34.40;;;;;;672762;29;1304;-88
2022/07/12 00:08:16;;;;;;;;;;;26.00;34.30;;;;;;672733;29;1236;-88
2022/07/12 00:08:37;;;;;;;;;;;26.00;34.30;;;;;;672179;29;1382;-88
2022/07/12 00:08:58;;;;;;;;;;;26.00;34.50;;;;;;668218;29;1255;-88
2022/07/12 00:09:18;;;;;;;;;;;26.00;34.30;;;;;;670455;29;1373;-88
2022/07/12 00:09:39;;;;;;;;;;;26.10;34.40;;;;;;670506;29;1375;-89
2022/07/12 00:09:59;;;;;;;;;;;26.00;34.30;;;;;;672358;29;1141;-89
2022/07/12 00:10:20;;;;;;;;;;;26.10;34.30;;;;;;672675;29;1136;-89
2022/07/12 00:10:40;;;;;;;;;;;26.00;34.30;;;;;;670292;29;1208;-88
2022/07/12 00:11:01;;;;;;;;;;;26.10;34.60;;;;;;672716;29;1302;-88
2022/07/12 00:11:22;;;;;;;;;;;26.00;34.50;;;;;;670218;29;1222;-88
2022/07/12 00:11:42;;;;;;;;;;;26.00;34.40;;;;;;670168;29;1364;-88
2022/07/12 00:12:03;;;;;;;;;;;26.10;34.40;;;;;;669848;29;1227;-88
2022/07/12 00:12:24;;;;;;;;;;;;;;;;;;664969;29;1323;-88
2022/07/12 00:12:44;;;;;;;;;;;26.00;34.40;;;;;;669930;29;1201;-88
2022/07/12 00:13:05;;;;;;;;;;;26.10;34.50;;;;;;670460;29;1166;-88
2022/07/12 00:13:25;;;;;;;;;;;26.00;34.40;;;;;;669796;29;1285;-89
2022/07/12 00:13:46;;;;;;;;;;;25.90;34.30;;;;;;670142;29;1341;-88
2022/07/12 00:14:07;;;;;;;;;;;26.00;34.30;;;;;;670336;29;1458;-88
2022/07/12 00:14:27;;;;;;;;;;;26.00;34.20;;;;;;670141;29;1298;-88
2022/07/12 00:14:49;;;;;;;;;;;26.00;34.40;;;;;;670182;29;1374;-88
2022/07/12 00:15:10;;;;;;;;;;;26.00;34.20;;;;;;667923;29;1272;-88
2022/07/12 00:15:30;;;;;;;;;;;25.90;34.10;;;;;;667557;29;1349;-88
2022/07/12 00:15:51;;;;;;;;;;;26.00;34.20;;;;;;665123;29;1248;-88
2022/07/12 00:16:11;;;;;;;;;;;26.10;34.20;;;;;;665491;29;1090;-87
2022/07/12 00:16:32;;;;;;;;;;;26.00;34.20;;;;;;667928;29;1421;-87
2022/07/12 00:16:52;;;;;;;;;;;26.00;34.20;;;;;;670411;29;1240;-88
2022/07/12 00:17:13;;;;;;;;;;;26.00;34.10;;;;;;672686;29;1347;-88
2022/07/12 00:17:34;;;;;;;;;;;;;;;;;;672717;29;1265;-88
2022/07/12 00:17:55;;;;;;;;;;;26.00;34.20;;;;;;672700;29;1260;-87
2022/07/12 00:18:15;;;;;;;;;;;26.00;34.30;;;;;;670230;29;1476;-88
2022/07/12 00:18:36;;;;;;;;;;;26.00;34.20;;;;;;667932;29;1269;-88
2022/07/12 00:18:56;;;;;;;;;;;26.10;34.20;;;;;;670230;29;1585;-87
2022/07/12 00:19:18;;;;;;;;;;;26.00;34.30;;;;;;667835;29;1121;-88
2022/07/12 00:19:38;;;;;;;;;;;26.00;34.10;;;;;;670002;29;1164;-88
2022/07/12 00:19:59;;;;;;;;;;;26.00;34.10;;;;;;670145;29;1232;-89
2022/07/12 00:20:19;;;;;;;;;;;26.00;34.10;;;;;;670154;29;1089;-88
2022/07/12 00:20:40;;;;;;;;;;;26.00;34.10;;;;;;667722;29;1903;-88
2022/07/12 00:21:00;;;;;;;;;;;26.00;34.10;;;;;;670427;29;1215;-89
2022/07/12 00:21:21;;;;;;;;;;;26.10;34.20;;;;;;670173;29;1219;-88
2022/07/12 00:21:41;;;;;;;;;;;26.00;34.10;;;;;;667509;29;1312;-88
2022/07/12 00:22:02;;;;;;;;;;;26.00;34.10;;;;;;667925;29;1444;-87
2022/07/12 00:22:23;;;;;;;;;;;26.00;34.10;;;;;;670065;29;1473;-88
2022/07/12 00:22:46;;;;;;;;;;;26.00;34.10;;;;;;670456;29;1190;-88
2022/07/12 00:23:06;;;;;;;;;;;26.00;34.10;;;;;;672603;29;1390;-87
2022/07/12 00:23:27;;;;;;;;;;;26.00;34.20;;;;;;672632;29;1188;-88
2022/07/12 00:23:47;;;;;;;;;;;26.00;34.20;;;;;;672627;29;1218;-88
2022/07/12 00:24:09;;;;;;;;;;;26.00;34.30;;;;;;673319;29;1322;-87
2022/07/12 00:24:29;;;;;;;;;;;26.00;34.30;;;;;;672712;29;1240;-89
2022/07/12 00:24:50;;;;;;;;;;;26.00;34.30;;;;;;672609;29;1482;-89
2022/07/12 00:25:10;;;;;;;;;;;26.00;34.30;;;;;;672991;29;1340;-88
2022/07/12 00:25:31;;;;;;;;;;;26.00;34.20;;;;;;674881;29;1377;-87
2022/07/12 00:25:51;;;;;;;;;;;26.00;34.20;;;;;;672920;29;789;-88
2022/07/12 00:26:12;;;;;;;;;;;26.00;34.30;;;;;;675194;29;1363;-88
2022/07/12 00:26:32;;;;;;;;;;;26.00;34.30;;;;;;672416;29;1236;-88
2022/07/12 00:26:53;;;;;;;;;;;26.00;34.30;;;;;;667608;29;1218;-88
2022/07/12 00:27:14;;;;;;;;;;;26.00;34.40;;;;;;667257;29;1390;-88
2022/07/12 00:27:34;;;;;;;;;;;26.00;34.40;;;;;;667824;29;1109;-88
2022/07/12 00:27:55;;;;;;;;;;;26.10;34.40;;;;;;672549;29;1285;-88
2022/07/12 00:28:16;;;;;;;;;;;26.00;34.30;;;;;;673003;29;1205;-88
2022/07/12 00:28:36;;;;;;;;;;;26.10;34.40;;;;;;672958;29;1224;-88
2022/07/12 00:28:57;;;;;;;;;;;26.00;34.30;;;;;;672291;29;1176;-88
2022/07/12 00:29:18;;;;;;;;;;;26.00;34.50;;;;;;667584;29;1117;-88
2022/07/12 00:29:39;;;;;;;;;;;26.00;34.20;;;;;;667487;29;1458;-89
2022/07/12 00:29:59;;;;;;;;;;;26.00;34.20;;;;;;667500;29;1248;-89
2022/07/12 00:30:20;;;;;;;;;;;26.00;34.20;;;;;;667846;29;1209;-88
2022/07/12 00:30:41;;;;;;;;;;;26.00;34.20;;;;;;670435;29;1106;-88
2022/07/12 00:31:03;;;;;;;;;;;26.00;34.20;;;;;;672628;29;1332;-88
2022/07/12 00:31:23;;;;;;;;;;;26.10;34.20;;;;;;673082;29;1428;-88
2022/07/12 00:31:44;;;;;;;;;;;26.00;34.20;;;;;;674799;29;911;-88
2022/07/12 00:32:05;;;;;;;;;;;26.00;34.10;;;;;;672595;29;1209;-88
2022/07/12 00:32:25;;;;;;;;;;;26.10;34.20;;;;;;670147;29;1219;-86
2022/07/12 00:32:47;;;;;;;;;;;26.10;34.20;;;;;;667983;29;1181;-87
2022/07/12 00:33:08;;;;;;;;;;;26.10;34.20;;;;;;670108;29;1303;-87
2022/07/12 00:33:29;;;;;;;;;;;26.10;34.20;;;;;;667502;29;1473;-89
2022/07/12 00:33:49;;;;;;;;;;;26.10;34.30;;;;;;667944;29;1110;-88
2022/07/12 00:34:10;;;;;;;;;;;26.10;34.30;;;;;;670585;29;884;-88
2022/07/12 00:34:30;;;;;;;;;;;26.10;34.20;;;;;;672637;29;1148;-87
2022/07/12 00:34:51;;;;;;;;;;;26.10;34.20;;;;;;672574;29;1221;-89
2022/07/12 00:35:11;;;;;;;;;;;26.10;34.20;;;;;;670381;29;1345;-88
2022/07/12 00:35:32;;;;;;;;;;;26.10;34.20;;;;;;670331;29;1332;-88
2022/07/12 00:35:53;;;;;;;;;;;26.10;34.10;;;;;;672493;29;1368;-87
2022/07/12 00:36:13;;;;;;;;;;;26.10;34.10;;;;;;672407;29;1101;-88
2022/07/12 00:36:34;;;;;;;;;;;26.10;34.10;;;;;;672783;29;1347;-88
2022/07/12 00:36:55;;;;;;;;;;;26.10;34.10;;;;;;670215;29;1223;-89
2022/07/12 00:37:15;;;;;;;;;;;26.10;34.10;;;;;;667828;29;1396;-88
2022/07/12 00:37:36;;;;;;;;;;;26.10;34.10;;;;;;667549;29;1336;-88
2022/07/12 00:37:56;;;;;;;;;;;26.10;34.00;;;;;;667730;29;1211;-87
2022/07/12 00:38:17;;;;;;;;;;;26.10;34.10;;;;;;669757;29;1239;-87
2022/07/12 00:38:38;;;;;;;;;;;26.10;34.10;;;;;;670427;29;1263;-88
2022/07/12 00:38:58;;;;;;;;;;;26.10;34.10;;;;;;670169;29;1274;-89
2022/07/12 00:39:19;;;;;;;;;;;26.10;34.10;;;;;;667933;29;1465;-89
2022/07/12 00:39:39;;;;;;;;;;;26.10;34.10;;;;;;670226;29;1026;-88
2022/07/12 00:40:00;;;;;;;;;;;26.10;34.00;;;;;;670235;29;1177;-88
2022/07/12 00:40:21;;;;;;;;;;;26.10;34.00;;;;;;670168;29;1378;-88
2022/07/12 00:40:42;;;;;;;;;;;26.10;34.00;;;;;;670119;29;1899;-89
2022/07/12 00:41:02;;;;;;;;;;;26.10;34.00;;;;;;670178;29;1248;-88
2022/07/12 00:41:23;;;;;;;;;;;26.10;34.00;;;;;;670283;29;1311;-88
2022/07/12 00:41:44;;;;;;;;;;;;;;;;;;670550;29;1262;-88
2022/07/12 00:42:04;;;;;;;;;;;26.10;34.00;;;;;;670100;29;1306;-88
2022/07/12 00:42:26;;;;;;;;;;;26.10;34.00;;;;;;667563;29;1214;-89
2022/07/12 00:42:46;;;;;;;;;;;26.10;34.00;;;;;;668021;29;1257;-88
2022/07/12 00:43:07;;;;;;;;;;;26.10;34.00;;;;;;670123;29;1333;-88
2022/07/12 00:43:28;;;;;;;;;;;26.10;34.00;;;;;;670557;29;1309;-88
2022/07/12 00:43:48;;;;;;;;;;;26.10;34.00;;;;;;673045;29;1235;-88
2022/07/12 00:44:09;;;;;;;;;;;26.10;34.00;;;;;;672629;29;1355;-89
2022/07/12 00:44:30;;;;;;;;;;;;;;;;;;672389;29;1432;-89
2022/07/12 00:44:51;;;;;;;;;;;26.10;33.90;;;;;;670345;29;1255;-88
2022/07/12 00:45:11;;;;;;;;;;;26.10;34.00;;;;;;670076;29;1109;-88
2022/07/12 00:45:32;;;;;;;;;;;26.10;33.90;;;;;;670127;29;1235;-88
2022/07/12 00:45:53;;;;;;;;;;;26.10;34.00;;;;;;670046;29;1276;-87
2022/07/12 00:46:14;;;;;;;;;;;26.10;34.00;;;;;;670444;29;1293;-88
2022/07/12 00:46:35;;;;;;;;;;;26.10;34.00;;;;;;672870;29;1293;-89
2022/07/12 00:46:56;;;;;;;;;;;26.10;34.00;;;;;;675573;29;1322;-89
2022/07/12 00:47:23;;;;;;;;;;;26.10;34.00;;;;;;674745;29;1260;-88
2022/07/12 00:47:49;;;;;;;;;;;26.10;33.90;;;;;;673931;29;1319;-87
2022/07/12 00:48:10;;;;;;;;;;;26.10;33.80;;;;;;673137;29;1212;-87
2022/07/12 00:48:34;;;;;;;;;;;26.10;34.00;;;;;;675193;29;1144;-87
2022/07/12 00:48:55;;;;;;;;;;;;;;;;;;672579;29;1341;-87
2022/07/12 00:49:16;;;;;;;;;;;26.10;34.00;;;;;;672538;29;1206;-89
2022/07/12 00:49:37;;;;;;;;;;;26.10;34.00;;;;;;671166;29;1360;-88
2022/07/12 00:49:58;;;;;;;;;;;26.10;34.00;;;;;;670054;29;1204;-87
2022/07/12 00:50:22;;;;;;;;;;;26.10;34.00;;;;;;670839;29;1161;-90
2022/07/12 00:50:44;;;;;;;;;;;26.10;33.90;;;;;;671061;29;1346;-88
2022/07/12 00:51:04;;;;;;;;;;;26.10;33.90;;;;;;672547;29;1283;-87
2022/07/12 00:51:25;;;;;;;;;;;26.10;33.90;;;;;;672677;29;789;-87
2022/07/12 00:51:46;;;;;;;;;;;26.00;33.90;;;;;;671011;29;1394;-88
2022/07/12 00:52:07;;;;;;;;;;;26.10;33.90;;;;;;672598;29;1125;-87
2022/07/12 00:52:27;;;;;;;;;;;26.10;33.90;;;;;;672598;29;1245;-88
2022/07/12 00:52:52;;;;;;;;;;;26.10;33.90;;;;;;670094;29;1218;-88
2022/07/12 00:53:13;;;;;;;;;;;26.10;33.90;;;;;;670009;29;1166;-88
2022/07/12 00:53:36;;;;;;;;;;;26.10;34.00;;;;;;670114;29;1092;-89
2022/07/12 00:53:58;;;;;;;;;;;26.10;34.00;;;;;;667593;29;1205;-88
2022/07/12 00:54:19;;;;;;;;;;;26.10;34.00;;;;;;666487;29;1308;-89
2022/07/12 00:54:40;;;;;;;;;;;26.10;34.00;;;;;;666344;29;1372;-88
2022/07/12 00:55:01;;;;;;;;;;;;;;;;;;667435;29;1253;-88
2022/07/12 00:55:22;;;;;;;;;;;26.10;34.00;;;;;;670792;29;1245;-88
2022/07/12 00:55:42;;;;;;;;;;;26.10;34.00;;;;;;670098;29;1374;-87
2022/07/12 00:56:05;;;;;;;;;;;26.10;34.00;;;;;;670440;29;1260;-88
2022/07/12 00:56:25;;;;;;;;;;;26.10;34.00;;;;;;669566;29;1337;-88
2022/07/12 00:56:47;;;;;;;;;;;26.10;33.90;;;;;;668048;29;1202;-88
2022/07/12 00:57:08;;;;;;;;;;;26.10;34.00;;;;;;669949;29;1339;-88
2022/07/12 00:57:28;;;;;;;;;;;26.10;34.00;;;;;;667473;29;1218;-87
2022/07/12 00:57:49;;;;;;;;;;;26.10;34.00;;;;;;668152;29;1220;-88
2022/07/12 00:58:10;;;;;;;;;;;26.10;33.90;;;;;;668021;29;1268;-88
2022/07/12 00:58:31;;;;;;;;;;;26.10;33.90;;;;;;667558;29;1399;-88
2022/07/12 00:58:51;;;;;;;;;;;26.10;33.90;;;;;;665109;29;1169;-87
2022/07/12 00:59:12;;;;;;;;;;;26.10;33.80;;;;;;662878;29;1248;-88
2022/07/12 00:59:33;;;;;;;;;;;26.10;33.80;;;;;;662842;29;1306;-88
2022/07/12 00:59:53;;;;;;;;;;;26.10;33.80;;;;;;662818;29;1244;-88
2022/07/12 01:00:16;;;;;;;;;;;26.10;33.90;;;;;;664983;29;1224;-88
2022/07/12 01:00:36;;;;;;;;;;;26.10;33.90;;;;;;664987;29;1981;-87
2022/07/12 01:00:58;;;;;;;;;;;26.10;33.80;;;;;;665567;29;1368;-88
2022/07/12 01:01:18;;;;;;;;;;;26.10;33.80;;;;;;669955;29;1211;-88
2022/07/12 01:01:40;;;;;;;;;;;26.10;33.80;;;;;;668093;29;1239;-89
2022/07/12 01:02:01;;;;;;;;;;;26.10;33.80;;;;;;668330;29;1210;-88
2022/07/12 01:02:22;;;;;;;;;;;26.10;33.80;;;;;;669978;29;1231;-88
2022/07/12 01:02:43;;;;;;;;;;;26.10;33.70;;;;;;669504;29;1212;-88
2022/07/12 01:03:04;;;;;;;;;;;26.10;33.70;;;;;;665536;29;1188;-88
2022/07/12 01:03:24;;;;;;;;;;;26.10;33.80;;;;;;670544;29;1247;-88
2022/07/12 01:03:45;;;;;;;;;;;26.10;33.80;;;;;;670378;29;1164;-88
2022/07/12 01:04:05;;;;;;;;;;;26.10;33.80;;;;;;670023;29;1399;-87
2022/07/12 01:04:27;;;;;;;;;;;26.10;33.80;;;;;;670435;29;1121;-87
2022/07/12 01:04:47;;;;;;;;;;;26.10;33.70;;;;;;672173;29;1270;-88
2022/07/12 01:05:08;;;;;;;;;;;26.10;33.80;;;;;;670432;29;1235;-88
2022/07/12 01:05:29;;;;;;;;;;;26.10;33.80;;;;;;672550;29;1131;-90
2022/07/12 01:05:50;;;;;;;;;;;26.10;33.80;;;;;;670038;29;1263;-88
2022/07/12 01:06:11;;;;;;;;;;;26.10;33.80;;;;;;670053;29;1338;-88
2022/07/12 01:06:32;;;;;;;;;;;26.10;33.90;;;;;;667498;29;1326;-88
2022/07/12 01:06:53;;;;;;;;;;;26.10;33.70;;;;;;667510;29;1098;-87
2022/07/12 01:07:15;;;;;;;;;;;;;;;;;;668043;29;1418;-89
2022/07/12 01:07:35;;;;;;;;;;;26.10;33.80;;;;;;669977;29;1346;-88
2022/07/12 01:07:56;;;;;;;;;;;26.10;33.70;;;;;;670029;29;1239;-88
2022/07/12 01:08:17;;;;;;;;;;;26.10;33.80;;;;;;670008;29;1231;-88
2022/07/12 01:08:38;;;;;;;;;;;26.10;33.80;;;;;;667598;29;1329;-87
2022/07/12 01:09:01;;;;;;;;;;;26.10;33.80;;;;;;668104;29;1427;-89
2022/07/12 01:09:21;;;;;;;;;;;26.10;33.80;;;;;;667427;29;1153;-88
2022/07/12 01:09:43;;;;;;;;;;;26.10;33.80;;;;;;664946;29;1271;-88
2022/07/12 01:10:04;;;;;;;;;;;;;;;;;;667407;29;1407;-88
2022/07/12 01:10:24;;;;;;;;;;;26.10;33.80;;;;;;668175;29;1497;-87
2022/07/12 01:10:46;;;;;;;;;;;26.10;33.70;;;;;;670787;29;1251;-87
2022/07/12 01:11:07;;;;;;;;;;;26.10;33.80;;;;;;672782;29;781;-90
2022/07/12 01:11:28;;;;;;;;;;;28.00;35.30;;;;;;672705;29;1240;-87
2022/07/12 01:11:49;;;;;;;;;;;26.10;33.90;;;;;;672535;29;1208;-89
2022/07/12 01:12:10;;;;;;;;;;;26.10;33.80;;;;;;672565;29;1188;-88
2022/07/12 01:12:30;;;;;;;;;;;26.10;33.90;;;;;;669635;29;1224;-88
2022/07/12 01:12:52;;;;;;;;;;;26.10;33.80;;;;;;667627;29;857;-88
2022/07/12 01:13:12;;;;;;;;;;;26.10;33.80;;;;;;669600;29;1280;-88
2022/07/12 01:13:34;;;;;;;;;;;26.10;34.00;;;;;;670963;29;1204;-87
2022/07/12 01:13:55;;;;;;;;;;;26.10;33.80;;;;;;670508;29;1327;-88
2022/07/12 01:14:16;;;;;;;;;;;26.10;33.80;;;;;;671004;29;1235;-88
2022/07/12 01:14:39;;;;;;;;;;;26.10;33.90;;;;;;672615;29;1463;-88
2022/07/12 01:15:01;;;;;;;;;;;26.10;33.90;;;;;;671818;29;1203;-89
2022/07/12 01:15:22;;;;;;;;;;;26.10;33.80;;;;;;670398;29;1319;-89
2022/07/12 01:15:42;;;;;;;;;;;26.10;33.90;;;;;;667687;29;1379;-88
2022/07/12 01:16:05;;;;;;;;;;;26.10;33.80;;;;;;667703;29;1258;-88
2022/07/12 01:16:25;;;;;;;;;;;26.10;33.80;;;;;;667677;29;1655;-88
2022/07/12 01:16:46;;;;;;;;;;;26.00;33.80;;;;;;666004;29;1394;-88
2022/07/12 01:17:10;;;;;;;;;;;26.10;33.90;;;;;;667857;29;1402;-92
2022/07/12 01:17:31;;;;;;;;;;;26.10;33.90;;;;;;667948;29;1430;-87
2022/07/12 01:17:52;;;;;;;;;;;26.10;34.00;;;;;;668831;29;1200;-87
2022/07/12 01:18:13;;;;;;;;;;;26.00;33.80;;;;;;667698;29;1401;-88
2022/07/12 01:18:37;;;;;;;;;;;26.10;34.00;;;;;;667965;29;1184;-88
2022/07/12 01:18:58;;;;;;;;;;;26.10;34.00;;;;;;668257;29;1336;-92
2022/07/12 01:19:23;;;;;;;;;;;26.00;33.80;;;;;;668870;29;1290;-90
2022/07/12 01:19:44;;;;;;;;;;;26.10;33.80;;;;;;672029;29;1401;-87
2022/07/12 01:20:08;;;;;;;;;;;26.10;33.80;;;;;;673234;29;1358;-89
2022/07/12 01:20:29;;;;;;;;;;;26.10;34.00;;;;;;673155;29;1239;-87
2022/07/12 01:20:53;;;;;;;;;;;26.00;33.90;;;;;;673167;29;1903;-90
2022/07/12 01:21:16;;;;;;;;;;;;;;;;;;671593;29;1397;-85
2022/07/12 01:21:46;;;;;;;;;;;26.10;34.00;;;;;;670461;29;1378;-93
2022/07/12 01:22:09;;;;;;;;;;;26.00;33.90;;;;;;668311;29;1346;-87
2022/07/12 01:22:31;;;;;;;;;;;26.10;34.00;;;;;;665661;29;1093;-90
2022/07/12 01:22:57;;;;;;;;;;;26.00;33.90;;;;;;665764;29;1200;-88
2022/07/12 01:23:21;;;;;;;;;;;26.10;34.00;;;;;;669592;29;1240;-88
2022/07/12 01:23:41;;;;;;;;;;;26.00;34.10;;;;;;672505;29;1221;-89
2022/07/12 01:24:04;;;;;;;;;;;26.10;34.20;;;;;;675310;29;1244;-88
2022/07/12 01:24:24;;;;;;;;;;;26.00;33.90;;;;;;673454;29;1219;-88
2022/07/12 01:24:45;;;;;;;;;;;26.00;33.90;;;;;;670360;29;1215;-87
2022/07/12 01:25:06;;;;;;;;;;;26.00;33.90;;;;;;673152;29;1212;-87
2022/07/12 01:25:27;;;;;;;;;;;26.00;34.00;;;;;;670709;29;1310;-88
2022/07/12 01:25:47;;;;;;;;;;;26.00;33.90;;;;;;670008;29;1312;-87
2022/07/12 01:26:08;;;;;;;;;;;26.00;34.10;;;;;;671152;29;1337;-88
2022/07/12 01:26:28;;;;;;;;;;;26.00;34.00;;;;;;673547;29;1260;-89
2022/07/12 01:26:49;;;;;;;;;;;26.00;33.90;;;;;;673215;29;1339;-89
2022/07/12 01:27:10;;;;;;;;;;;26.00;33.90;;;;;;673046;29;1354;-89
2022/07/12 01:27:31;;;;;;;;;;;26.00;33.90;;;;;;673362;29;1208;-88
2022/07/12 01:27:52;;;;;;;;;;;26.00;33.90;;;;;;670658;29;1258;-87
2022/07/12 01:28:12;;;;;;;;;;;26.00;33.90;;;;;;670738;29;1227;-88
2022/07/12 01:28:34;;;;;;;;;;;26.00;33.90;;;;;;670376;29;1312;-88
2022/07/12 01:28:55;;;;;;;;;;;26.00;33.90;;;;;;670685;29;1216;-87
2022/07/12 01:29:16;;;;;;;;;;;26.00;33.90;;;;;;671101;29;1376;-87
2022/07/12 01:29:36;;;;;;;;;;;26.00;34.00;;;;;;673606;29;1126;-88
2022/07/12 01:29:57;;;;;;;;;;;26.00;34.00;;;;;;673118;29;1238;-88
2022/07/12 01:30:17;;;;;;;;;;;26.00;34.00;;;;;;672741;29;1247;-87
2022/07/12 01:30:40;;;;;;;;;;;26.00;34.10;;;;;;673397;29;1309;-87
2022/07/12 01:31:01;;;;;;;;;;;26.00;34.00;;;;;;674839;29;1521;-89
2022/07/12 01:31:21;;;;;;;;;;;26.00;34.00;;;;;;672909;29;1221;-88
2022/07/12 01:31:42;;;;;;;;;;;26.00;34.00;;;;;;672502;29;1220;-87
2022/07/12 01:32:42;;;;;;;;;;;26.30;34.50;;;;;;672794;29;611;-88
2022/07/12 01:33:04;;;;;;;;;;;26.00;34.10;;;;;;672728;29;994;-87
2022/07/12 01:33:24;;;;;;;;;;;26.00;34.00;;;;;;675370;29;1336;-88
2022/07/12 01:33:45;;;;;;;;;;;26.00;33.90;;;;;;675276;29;1222;-87
2022/07/12 01:34:06;;;;;;;;;;;26.00;33.90;;;;;;677826;29;1294;-88
2022/07/12 01:34:27;;;;;;;;;;;26.00;33.90;;;;;;677896;29;1261;-87
2022/07/12 01:34:51;;;;;;;;;;;26.00;33.90;;;;;;677492;29;1324;-88
2022/07/12 01:35:13;;;;;;;;;;;26.00;33.80;;;;;;677202;29;1168;-87
2022/07/12 01:35:33;;;;;;;;;;;25.90;33.80;;;;;;676313;29;1326;-88
2022/07/12 01:35:54;;;;;;;;;;;26.00;33.90;;;;;;676935;29;1277;-87
2022/07/12 01:36:14;;;;;;;;;;;26.00;33.90;;;;;;675220;29;1259;-88
2022/07/12 01:36:36;;;;;;;;;;;26.00;33.90;;;;;;672874;29;1533;-88
2022/07/12 01:36:57;;;;;;;;;;;26.00;33.90;;;;;;672767;29;1453;-88
2022/07/12 01:37:18;;;;;;;;;;;26.00;33.90;;;;;;672505;29;1227;-88
2022/07/12 01:37:42;;;;;;;;;;;26.00;33.90;;;;;;672188;29;1242;-89
2022/07/12 01:38:02;;;;;;;;;;;26.00;34.00;;;;;;672551;29;1344;-89
2022/07/12 01:38:23;;;;;;;;;;;26.00;33.90;;;;;;673961;29;1152;-88
2022/07/12 01:38:44;;;;;;;;;;;;;;;;;;675340;29;1242;-88
2022/07/12 01:39:04;;;;;;;;;;;26.00;33.90;;;;;;672752;29;1232;-88
2022/07/12 01:39:25;;;;;;;;;;;26.00;33.90;;;;;;673045;29;1235;-88
2022/07/12 01:39:47;;;;;;;;;;;26.00;33.90;;;;;;672062;29;1327;-90
2022/07/12 01:40:11;;;;;;;;;;;26.00;34.00;;;;;;672085;29;1353;-88
2022/07/12 01:40:32;;;;;;;;;;;25.90;33.80;;;;;;670880;29;1251;-88
2022/07/12 01:40:53;;;;;;;;;;;26.00;33.80;;;;;;671979;29;1883;-87
2022/07/12 01:41:13;;;;;;;;;;;25.90;33.80;;;;;;673486;29;1344;-87
2022/07/12 01:41:34;;;;;;;;;;;25.90;33.80;;;;;;673152;29;1363;-87
2022/07/12 01:41:55;;;;;;;;;;;26.00;33.80;;;;;;672171;29;1200;-88
2022/07/12 01:42:15;;;;;;;;;;;25.90;33.80;;;;;;673006;29;1361;-88
2022/07/12 01:42:36;;;;;;;;;;;25.90;33.80;;;;;;670863;29;1386;-89
2022/07/12 01:42:57;;;;;;;;;;;25.90;33.80;;;;;;672668;29;1331;-88
2022/07/12 01:43:18;;;;;;;;;;;25.90;33.90;;;;;;670760;29;1282;-87
2022/07/12 01:43:38;;;;;;;;;;;25.90;33.80;;;;;;673063;29;1373;-87
2022/07/12 01:43:59;;;;;;;;;;;25.90;33.90;;;;;;670593;29;1298;-89
2022/07/12 01:44:20;;;;;;;;;;;;;;;;;;670343;29;1375;-88
2022/07/12 01:44:41;;;;;;;;;;;25.90;34.00;;;;;;670811;29;1359;-88
2022/07/12 01:45:02;;;;;;;;;;;26.00;34.00;;;;;;670871;29;1307;-88
2022/07/12 01:45:23;;;;;;;;;;;25.90;33.90;;;;;;672896;29;1310;-88
2022/07/12 01:45:43;;;;;;;;;;;25.90;34.00;;;;;;673500;29;1244;-87
2022/07/12 01:46:04;;;;;;;;;;;25.90;33.90;;;;;;675528;29;1561;-87
2022/07/12 01:46:24;;;;;;;;;;;25.90;34.10;;;;;;673156;29;1144;-88
2022/07/12 01:46:45;;;;;;;;;;;25.90;34.00;;;;;;672659;29;1258;-88
2022/07/12 01:47:05;;;;;;;;;;;25.90;34.00;;;;;;667936;29;1247;-87
2022/07/12 01:47:27;;;;;;;;;;;25.90;33.90;;;;;;668157;29;1364;-88
2022/07/12 01:47:48;;;;;;;;;;;25.90;34.10;;;;;;668681;29;1257;-87
2022/07/12 01:48:09;;;;;;;;;;;26.00;33.90;;;;;;670910;29;1464;-90
2022/07/12 01:48:29;;;;;;;;;;;25.90;33.90;;;;;;671433;29;1231;-89
2022/07/12 01:48:50;;;;;;;;;;;25.90;33.90;;;;;;671412;29;1356;-89
2022/07/12 01:49:11;;;;;;;;;;;26.00;34.10;;;;;;673294;29;1026;-89
2022/07/12 01:49:31;;;;;;;;;;;25.90;34.10;;;;;;673239;29;1233;-89
2022/07/12 01:49:52;;;;;;;;;;;25.90;34.00;;;;;;673366;29;1372;-88
2022/07/12 01:50:13;;;;;;;;;;;25.90;34.00;;;;;;670608;29;1211;-89
2022/07/12 01:50:33;;;;;;;;;;;25.90;33.90;;;;;;673187;29;1113;-89
2022/07/12 01:50:54;;;;;;;;;;;25.90;34.00;;;;;;673215;29;1093;-90
2022/07/12 01:51:15;;;;;;;;;;;25.90;33.80;;;;;;673131;29;1093;-89
2022/07/12 01:51:36;;;;;;;;;;;25.90;33.90;;;;;;672446;29;1105;-89
2022/07/12 01:51:57;;;;;;;;;;;25.90;34.00;;;;;;672334;29;1246;-87
2022/07/12 01:52:18;;;;;;;;;;;25.90;33.90;;;;;;669900;29;1215;-88
2022/07/12 01:52:40;;;;;;;;;;;25.90;33.90;;;;;;671877;29;1073;-89
2022/07/12 01:53:01;;;;;;;;;;;25.90;34.00;;;;;;672206;29;1287;-89
2022/07/12 01:53:21;;;;;;;;;;;25.90;33.90;;;;;;672086;29;1501;-88
2022/07/12 01:53:42;;;;;;;;;;;25.90;33.80;;;;;;670327;29;1315;-88
2022/07/12 01:54:02;;;;;;;;;;;25.90;33.90;;;;;;668181;29;1381;-88
2022/07/12 01:54:25;;;;;;;;;;;25.90;33.90;;;;;;667868;29;1112;-88
2022/07/12 01:54:46;;;;;;;;;;;25.90;33.90;;;;;;665421;29;1490;-88
2022/07/12 01:55:07;;;;;;;;;;;25.90;33.90;;;;;;667887;29;1269;-88
2022/07/12 01:55:29;;;;;;;;;;;25.90;33.80;;;;;;667894;29;1343;-88
2022/07/12 01:55:50;;;;;;;;;;;25.90;33.80;;;;;;668716;29;1264;-88
2022/07/12 01:56:11;;;;;;;;;;;25.90;33.80;;;;;;671310;29;1186;-87
2022/07/12 01:56:31;;;;;;;;;;;25.90;33.80;;;;;;673170;29;1100;-88
2022/07/12 01:56:52;;;;;;;;;;;25.90;33.80;;;;;;669824;29;1301;-88
2022/07/12 01:57:13;;;;;;;;;;;25.90;33.90;;;;;;670679;29;1358;-88
2022/07/12 01:57:34;;;;;;;;;;;25.90;33.90;;;;;;670509;29;1116;-88
2022/07/12 01:57:55;;;;;;;;;;;25.90;33.80;;;;;;670509;29;1239;-88
2022/07/12 01:58:16;;;;;;;;;;;25.90;33.80;;;;;;667803;29;1213;-88
2022/07/12 01:58:37;;;;;;;;;;;25.90;33.80;;;;;;668469;29;1282;-89
2022/07/12 01:58:57;;;;;;;;;;;25.90;33.80;;;;;;670141;29;1347;-88
2022/07/12 01:59:21;;;;;;;;;;;25.90;33.90;;;;;;670345;29;1263;-89
2022/07/12 01:59:42;;;;;;;;;;;25.90;34.00;;;;;;668763;29;1180;-86
2022/07/12 02:00:04;;;;;;;;;;;25.90;34.00;;;;;;670441;29;1254;-88
2022/07/12 02:00:26;;;;;;;;;;;25.90;34.10;;;;;;670329;29;1511;-88
2022/07/12 02:00:51;;;;;;;;;;;25.90;34.00;;;;;;670377;29;1910;-87
2022/07/12 02:01:11;;;;;;;;;;;25.90;34.10;;;;;;667932;29;1378;-87
2022/07/12 02:01:32;;;;;;;;;;;25.90;34.10;;;;;;666591;29;1232;-88
2022/07/12 02:01:53;;;;;;;;;;;25.90;34.10;;;;;;670440;29;1405;-87
2022/07/12 02:02:14;;;;;;;;;;;;;;;;;;667797;29;1224;-87
2022/07/12 02:02:35;;;;;;;;;;;25.90;34.10;;;;;;668816;29;1278;-87
2022/07/12 02:02:55;;;;;;;;;;;25.90;34.00;;;;;;671061;29;714;-87
2022/07/12 02:03:16;;;;;;;;;;;25.90;34.00;;;;;;670439;29;1413;-88
2022/07/12 02:03:37;;;;;;;;;;;25.90;34.00;;;;;;670310;29;1374;-87
2022/07/12 02:04:02;;;;;;;;;;;25.90;34.20;;;;;;670823;29;1100;-87
2022/07/12 02:04:22;;;;;;;;;;;25.90;34.00;;;;;;670243;29;1277;-88
2022/07/12 02:04:43;;;;;;;;;;;25.90;34.00;;;;;;667751;29;1089;-87
2022/07/12 02:05:04;;;;;;;;;;;;;;;;;;670231;29;1402;-88
2022/07/12 02:05:25;;;;;;;;;;;25.90;34.00;;;;;;670382;29;1475;-88
2022/07/12 02:05:48;;;;;;;;;;;25.90;34.10;;;;;;670435;29;1195;-87
2022/07/12 02:06:09;;;;;;;;;;;26.00;34.10;;;;;;670342;29;1278;-88
2022/07/12 02:06:29;;;;;;;;;;;26.00;34.20;;;;;;667776;29;1222;-88
2022/07/12 02:06:50;;;;;;;;;;;25.90;34.00;;;;;;667976;29;1258;-88
2022/07/12 02:07:11;;;;;;;;;;;26.00;34.10;;;;;;665983;29;1331;-87
2022/07/12 02:07:32;;;;;;;;;;;26.00;34.10;;;;;;668405;29;1370;-88
2022/07/12 02:07:53;;;;;;;;;;;25.90;34.00;;;;;;670767;29;1363;-87